WXM80 ListenWXM80 Stop

You find our weather info also at:

UK Metoffice

WeatherCloud

Weather Underground

Northeastern Weather Network

AWEKAS

Citizen Weather Observer Program (CWOP)

HAMweather, WeatherForYou, PWS Weather


Weather Underground History page Text

Daily Summary for January 12, 2018 Units:  Metric    English   Both
« Previous Day
Next Day »
Daily Weekly Monthly Yearly Custom
  High: Low: Average:
Temperature: -17.8 °C 2.9 °C 11.9 °C
Dew Point: -17.8 °C 2.3 °C 11.6 °C
Humidity: Humidity % 94 % 97 %
Wind Speed: 0 km/h 0 km/h 9.2 km/h
Wind Gust: 0 km/h - -
Wind:- - SSW
Pressure: 0 hPa 992.4 hPa -
Precipitation: 1.02 mm    
Historical Graphs
 
 
Tabular Data for January 12, 2018
Time Temperature Dew Point Pressure Wind Wind Speed Wind Gust Humidity Rainfall Rate (Hourly)
-17.8 °C -17.8 °C 0 hPa Calm     Humidity % 0 mm
00:01 3.2 °C 2.3 °C 1014.8 hPa Calm     94 % 0 mm
00:08 3.2 °C 2.4 °C 1014.8 hPa Calm     95 % 0 mm
00:14 3.1 °C 2.4 °C 1014.4 hPa Calm     95 % 0 mm
00:24 3.1 °C 2.3 °C 1014.1 hPa Calm   1.6 km/h 95 % 0 mm
00:33 3 °C 2.3 °C 1014.1 hPa Calm     95 % 0 mm
00:38 3 °C 2.3 °C 1013.8 hPa Calm     95 % 0 mm
00:45 3 °C 2.3 °C 1013.8 hPa WNW 1 km/h 3.2 km/h 95 % 0 mm
00:54 3 °C 2.3 °C 1013.8 hPa Calm     95 % 0 mm
01:00 3.1 °C 2.3 °C 1013.4 hPa Calm     95 % 0 mm
01:06 3.1 °C 2.4 °C 1013.4 hPa Calm     95 % 0 mm
01:15 3.3 °C 2.7 °C 1013.4 hPa Calm     96 % 0 mm
01:20 3.3 °C 2.7 °C 1013.4 hPa Calm     96 % 0 mm
01:27 3.3 °C 2.8 °C 1013.4 hPa Calm     96 % 0 mm
01:32 3.4 °C 2.9 °C 1013.4 hPa WNW 0.2 km/h 1.6 km/h 96 % 0 mm
01:37 3.5 °C 2.9 °C 1013.4 hPa Calm     96 % 0 mm
01:42 3.5 °C 2.9 °C 1013.1 hPa Calm     96 % 0 mm
01:48 3.5 °C 2.9 °C 1013.1 hPa WNW 0.3 km/h 5.6 km/h 96 % 0 mm
01:54 3.5 °C 2.9 °C 1013.1 hPa WNW 0.6 km/h 3.2 km/h 96 % 0 mm
01:59 3.4 °C 2.9 °C 1013.1 hPa Calm   1.9 km/h 96 % 0 mm
02:05 3.4 °C 2.8 °C 1013.1 hPa Calm     96 % 0 mm
02:10 3.3 °C 2.7 °C 1013.1 hPa Calm   1.9 km/h 96 % 0 mm
02:18 3.2 °C 2.6 °C 1012.8 hPa Calm   3.7 km/h 96 % 0 mm
02:24 3.1 °C 2.6 °C 1012.8 hPa Calm     96 % 0 mm
02:29 3.1 °C 2.5 °C 1012.8 hPa Calm     96 % 0 mm
02:34 3.1 °C 2.5 °C 1012.4 hPa Calm     96 % 0 mm
02:42 3 °C 2.4 °C 1012.4 hPa Calm     96 % 0 mm
02:47 3 °C 2.4 °C 1012.4 hPa Calm     96 % 0 mm
03:01 2.9 °C 2.4 °C 1012.1 hPa Calm     96 % 0 mm
03:09 3 °C 2.4 °C 1012.1 hPa Calm     96 % 0 mm
03:15 3 °C 2.4 °C 1011.7 hPa WNW 1 km/h 1.6 km/h 96 % 0 mm
03:33 3.1 °C 2.6 °C 1011.4 hPa Calm     96 % 0 mm
03:42 3.2 °C 2.6 °C 1011.1 hPa Calm     96 % 0 mm
03:52 3.2 °C 2.6 °C 1011.1 hPa Calm     96 % 0 mm
04:01 3.3 °C 2.7 °C 1010.7 hPa WNW 0.2 km/h 1.6 km/h 96 % 0 mm
04:18 4.9 °C 4.4 °C 1010.4 hPa SW 7.9 km/h 18.5 km/h 97 % 0 mm
04:31 8.6 °C 8.3 °C 1010 hPa South 4.8 km/h 12.9 km/h 98 % 0 mm
04:42 10.3 °C 10.1 °C 1009.7 hPa South 3.1 km/h 5.6 km/h 98 % 0 mm
04:51 10.7 °C 10.4 °C 1009.7 hPa South 9.7 km/h 12.9 km/h 98 % 0 mm
04:58 11 °C 10.7 °C 1009.7 hPa SSW 4.7 km/h 24.1 km/h 98 % 0 mm
05:05 11.2 °C 10.9 °C 1009.7 hPa SW 5 km/h 9.7 km/h 98 % 0 mm
05:22 11.8 °C 11.6 °C 1009.7 hPa South 11.3 km/h 20.4 km/h 98 % 0 mm
05:42 12.4 °C 12.1 °C 1009 hPa SSW 7.6 km/h 16.7 km/h 98 % 0 mm
05:50 12.5 °C 12.2 °C 1009 hPa South 9.8 km/h 14.8 km/h 98 % 0 mm
05:56 12.6 °C 12.2 °C 1008.7 hPa South 10.1 km/h 18.5 km/h 98 % 0 mm
06:08 12.8 °C 12.4 °C 1008.7 hPa South 10.9 km/h 16.7 km/h 98 % 0 mm
06:13 13 °C 12.7 °C 1009 hPa South 11.6 km/h 18.5 km/h 98 % 0 mm
06:26 13.4 °C 13.1 °C 1008.7 hPa SW 7.7 km/h 25.9 km/h 98 % 0 mm
06:31 13.6 °C 13.2 °C 1008.7 hPa South 10.6 km/h 20.4 km/h 98 % 0 mm
06:36 13.7 °C 13.3 °C 1008.7 hPa South 11.4 km/h 18.5 km/h 98 % 0 mm
06:41 13.7 °C 13.3 °C 1008.7 hPa South 11.4 km/h 20.4 km/h 98 % 0 mm
06:48 13.7 °C 13.4 °C 1008.4 hPa SSW 10.3 km/h 22.2 km/h 98 % 0 mm
06:55 13.7 °C 13.3 °C 1008.4 hPa South 9 km/h 14.8 km/h 98 % 0 mm
07:01 13.8 °C 13.5 °C 1008.4 hPa South 18 km/h 29.6 km/h 98 % 0 mm
07:12 13.9 °C 13.6 °C 1008 hPa SE 13.5 km/h 24.1 km/h 98 % 0 mm
07:30 13.9 °C 13.6 °C 1007.7 hPa South 10.6 km/h 24.1 km/h 98 % 0 mm
07:37 14 °C 13.7 °C 1007.7 hPa South 15.3 km/h 20.4 km/h 98 % 0 mm
07:43 14 °C 13.7 °C 1007.7 hPa SSW 9.8 km/h 18.5 km/h 98 % 0 mm
07:54 14.1 °C 13.8 °C 1007.3 hPa SSW 10.6 km/h 22.2 km/h 98 % 0 mm
08:07 14.3 °C 13.9 °C 1007.3 hPa SSW 11.6 km/h 14.8 km/h 98 % 0 mm
08:19 14.3 °C 13.9 °C 1007 hPa South 10.6 km/h 31.5 km/h 98 % 0 mm
08:27 14.3 °C 14 °C 1007 hPa SSE 8.4 km/h 14.8 km/h 98 % 0 mm
08:35 14.3 °C 13.9 °C 1007 hPa South 15.8 km/h 27.8 km/h 97 % 0 mm
08:40 14.5 °C 14.1 °C 1007 hPa South 15.4 km/h 22.2 km/h 97 % 0 mm
08:50 14.6 °C 14.2 °C 1007 hPa SSW 14.8 km/h 25.9 km/h 97 % 0 mm
09:03 14.8 °C 14.4 °C 1006.3 hPa South 16.3 km/h 38.9 km/h 97 % 0 mm
09:13 14.9 °C 14.4 °C 1006.3 hPa South 15.4 km/h 31.5 km/h 97 % 0 mm
09:19 14.9 °C 14.4 °C 1006.3 hPa South 12.1 km/h 31.5 km/h 97 % 0 mm
09:25 14.8 °C 14.4 °C 1006 hPa South 9.5 km/h 16.7 km/h 97 % 0 mm
09:30 14.7 °C 14.3 °C 1006.3 hPa South 14.2 km/h 29 km/h 97 % 0 mm
09:43 14.8 °C 14.3 °C 1006 hPa South 14.2 km/h 22.2 km/h 97 % 0 mm
10:01 15.2 °C 14.7 °C 1005.6 hPa SSW 21.4 km/h 32.2 km/h 97 % 0 mm
10:35 15.3 °C 14.8 °C 1005 hPa SW 16.9 km/h 31.5 km/h 97 % 0 mm
10:43 15.3 °C 14.8 °C 1005 hPa SSE 15.3 km/h 29 km/h 97 % 0 mm
10:52 15.6 °C 15.1 °C 1004.6 hPa South 16.6 km/h 29.6 km/h 97 % 0 mm
10:58 15.6 °C 15.1 °C 1004.3 hPa SSW 20.4 km/h 25.9 km/h 97 % 0 mm
11:03 15.6 °C 15.1 °C 1004.3 hPa SE 16.9 km/h 33.3 km/h 97 % 0 mm
11:10 15.4 °C 14.8 °C 1004.6 hPa SSE 9.5 km/h 16.7 km/h 96 % 0 mm
11:15 15.4 °C 14.8 °C 1004.3 hPa SSW 14.5 km/h 24.1 km/h 96 % 0 mm
11:22 15.4 °C 14.9 °C 1004.3 hPa South 13.8 km/h 18.5 km/h 97 % 0 mm
11:29 15.6 °C 15.1 °C 1003.9 hPa SSW 18.7 km/h 31.5 km/h 97 % 0 mm
11:42 15.5 °C 15 °C 1003.6 hPa SSW 15.6 km/h 32.2 km/h 97 % 0 mm
11:47 15.4 °C 14.9 °C 1003.9 hPa SSW 12.9 km/h 29.6 km/h 97 % 0 mm
11:52 15.4 °C 14.9 °C 1003.6 hPa South 13.4 km/h 42.6 km/h 97 % 0 mm
12:17 15.7 °C 15.2 °C 1002.6 hPa South 11.6 km/h 24.1 km/h 97 % 0 mm
12:59 16.2 °C 15.7 °C 1001.6 hPa SSW 21.7 km/h 27.8 km/h 97 % 0 mm
13:07 16.3 °C 15.8 °C 1001.9 hPa South 15 km/h 24.1 km/h 97 % 0 mm
13:19 16.3 °C 15.8 °C 1001.6 hPa South 17.5 km/h 27.8 km/h 97 % 0 mm
13:24 16.3 °C 16 °C 1001.2 hPa SSW 13.8 km/h 29.6 km/h 98 % 0 mm
13:30 16.4 °C 16.1 °C 1001.2 hPa South 17.9 km/h 30.6 km/h 98 % 0 mm
13:35 16.5 °C 16.2 °C 1001.2 hPa SSW 8 km/h 20.4 km/h 98 % 0 mm
13:40 16.5 °C 16.2 °C 1001.2 hPa SSW 13.5 km/h 29.6 km/h 98 % 0 mm
13:49 16.4 °C 16.1 °C 1001.2 hPa South 8.4 km/h 20.4 km/h 98 % 0 mm
13:55 16.4 °C 16.1 °C 1001.6 hPa SW 15 km/h 20.4 km/h 98 % 0 mm
14:05 16.2 °C 15.7 °C 1001.2 hPa South 8.9 km/h 18.5 km/h 97 % 0 mm
14:13 16 °C 15.5 °C 1001.2 hPa SSW 9.7 km/h 20.4 km/h 97 % 0 mm
14:30 15.8 °C 15.3 °C 1000.9 hPa SW 10.9 km/h 18.5 km/h 97 % 0 mm
14:44 15.8 °C 15.4 °C 1000.9 hPa SSE 12.2 km/h 19.3 km/h 98 % 0 mm
14:52 15.7 °C 15.4 °C 1000.9 hPa SSE 5.6 km/h 13 km/h 98 % 0 mm
14:57 15.7 °C 15.2 °C 1000.6 hPa South 8.5 km/h 12.9 km/h 97 % 0 mm
15:04 15.6 °C 15.1 °C 1000.6 hPa South 9.7 km/h 25.9 km/h 97 % 0 mm
15:09 15.5 °C 15 °C 1000.6 hPa South 8 km/h 11.1 km/h 97 % 0 mm
15:21 15.5 °C 15.2 °C 1000.2 hPa South 9.7 km/h 18.5 km/h 98 % 0 mm
15:25 15.5 °C 15 °C 1000.2 hPa South 12.4 km/h 24.1 km/h 97 % 0 mm
15:34 15.5 °C 15.2 °C 999.9 hPa South 14.5 km/h 35.2 km/h 98 % 0 mm
15:42 15.7 °C 15.3 °C 999.5 hPa SSW 10 km/h 18.5 km/h 98 % 0 mm
15:47 15.8 °C 15.5 °C 999.5 hPa South 14.8 km/h 20.4 km/h 98 % 0 mm
15:59 16.1 °C 15.8 °C 999.2 hPa SSW 14 km/h 22.2 km/h 98 % 0 mm
16:04 16.2 °C 15.8 °C 999.2 hPa South 15.8 km/h 22.2 km/h 98 % 0 mm
16:11 16.2 °C 15.9 °C 999.2 hPa SSW 15.3 km/h 29.6 km/h 98 % 0 mm
16:31 16 °C 15.7 °C 999.2 hPa South 11.6 km/h 25.9 km/h 98 % 0 mm
16:53 15.9 °C 15.6 °C 999.2 hPa SSW 14.3 km/h 29 km/h 98 % 0 mm
16:58 15.9 °C 15.6 °C 999.2 hPa WSW 13.5 km/h 31.5 km/h 98 % 0 mm
17:03 16 °C 15.7 °C 999.2 hPa SSW 11.9 km/h 20.4 km/h 98 % 0 mm
17:09 15.8 °C 15.5 °C 999.2 hPa South 14.5 km/h 20.4 km/h 98 % 0 mm
17:23 15.4 °C 15.1 °C 998.9 hPa SSE 12.1 km/h 29.6 km/h 98 % 0 mm
17:28 15.4 °C 15.1 °C 998.9 hPa SSE 9.8 km/h 22.2 km/h 98 % 0 mm
17:34 15.3 °C 15 °C 998.9 hPa South 9.8 km/h 18.5 km/h 98 % 0 mm
17:39 15.3 °C 14.9 °C 998.9 hPa South 11.9 km/h 18.5 km/h 98 % 0 mm
17:45 15.2 °C 14.9 °C 998.9 hPa SW 6.9 km/h 12.9 km/h 98 % 0 mm
17:53 15.1 °C 14.8 °C 998.9 hPa South 14.5 km/h 24.1 km/h 98 % 0 mm
18:00 15.1 °C 14.7 °C 998.9 hPa SSW 15.4 km/h 22.5 km/h 98 % 0 mm
18:05 14.9 °C 14.6 °C 998.9 hPa SSW 11.4 km/h 27.8 km/h 98 % 0 mm
18:10 14.9 °C 14.6 °C 998.9 hPa South 13.2 km/h 24.1 km/h 98 % 0 mm
18:19 14.8 °C 14.4 °C 998.9 hPa SSW 11.6 km/h 16.7 km/h 98 % 0 mm
18:24 14.7 °C 14.3 °C 998.9 hPa WSW 14.5 km/h 22.5 km/h 98 % 0 mm
18:35 14.4 °C 13.9 °C 998.9 hPa SSW 10.5 km/h 18.5 km/h 97 % 0 mm
18:46 14.1 °C 13.6 °C 998.9 hPa ESE 9.2 km/h 18.5 km/h 97 % 0 mm
18:55 13.8 °C 13.4 °C 998.9 hPa South 11.3 km/h 18.5 km/h 97 % 0 mm
19:05 13.6 °C 13.2 °C 998.9 hPa SSW 6 km/h 16.7 km/h 97 % 0 mm
19:10 13.6 °C 13.1 °C 998.5 hPa South 12.4 km/h 19.3 km/h 97 % 0 mm
19:17 13.4 °C 12.9 °C 998.5 hPa South 8.2 km/h 16.1 km/h 97 % 0 mm
19:26 13.3 °C 12.8 °C 998.2 hPa South 6 km/h 9.3 km/h 97 % 0 mm
19:36 13.2 °C 12.9 °C 998.2 hPa SSW 7.2 km/h 11.3 km/h 98 % 0 mm
19:41 13.2 °C 12.7 °C 997.9 hPa South 7.7 km/h 18.5 km/h 97 % 0 mm
19:47 13.1 °C 12.7 °C 997.9 hPa SSW 8.2 km/h 11.1 km/h 97 % 0 mm
19:52 13.2 °C 12.7 °C 997.9 hPa South 9.8 km/h 14.8 km/h 97 % 0.25 mm
20:13 13.3 °C 13 °C 997.2 hPa SSW 7.9 km/h 13 km/h 98 % 0.25 mm
20:18 13.3 °C 12.9 °C 996.8 hPa WSW 6.4 km/h 13 km/h 98 % 0.51 mm
20:27 13.2 °C 12.9 °C 996.8 hPa South 11.1 km/h 18.5 km/h 98 % 0.51 mm
20:35 13.2 °C 12.9 °C 996.8 hPa SSW 8 km/h 16.1 km/h 98 % 0 mm
20:40 13.3 °C 13 °C 996.8 hPa SSW 9.7 km/h 16.1 km/h 98 % 0 mm
20:48 13.4 °C 13.1 °C 996.8 hPa SSW 9.3 km/h 17.7 km/h 98 % 0.25 mm
20:56 13.4 °C 13.1 °C 996.5 hPa SSW 7.9 km/h 13 km/h 98 % 0.25 mm
21:05 13.3 °C 12.9 °C 996.5 hPa SSW 8.2 km/h 11.1 km/h 98 % 0.25 mm
21:15 13.2 °C 12.9 °C 996.5 hPa South 13.4 km/h 18.5 km/h 98 % 0.25 mm
21:21 13.3 °C 12.9 °C 996.2 hPa SSW 8.4 km/h 13 km/h 98 % 0 mm
21:31 13.3 °C 12.9 °C 995.8 hPa South 5.6 km/h 11.1 km/h 98 % 0 mm
21:40 13.3 °C 12.9 °C 995.8 hPa SSE 5.8 km/h 9.3 km/h 98 % 0 mm
21:50 13.4 °C 13.1 °C 995.1 hPa South 7.7 km/h 13 km/h 98 % 0 mm
21:55 13.6 °C 13.2 °C 995.1 hPa SSW 5.3 km/h 14.8 km/h 98 % 0 mm
22:03 13.8 °C 13.5 °C 994.8 hPa South 7.1 km/h 11.1 km/h 98 % 0 mm
22:21 14.5 °C 14.2 °C 994.5 hPa SSW 12.2 km/h 16.7 km/h 98 % 0.25 mm
22:45 15.8 °C 15.7 °C 993.8 hPa South 12.6 km/h 20.4 km/h 99 % 0.25 mm
22:50 16 °C 15.8 °C 993.8 hPa South 17.5 km/h 29.6 km/h 99 % 0.25 mm
22:57 16.2 °C 16 °C 993.5 hPa South 11.7 km/h 24.1 km/h 99 % 0.25 mm
23:02 16.3 °C 16.2 °C 993.5 hPa SSW 16.6 km/h 31.5 km/h 99 % 0.25 mm
23:14 16.3 °C 16.1 °C 993.5 hPa SSE 11.9 km/h 29.6 km/h 99 % 0.25 mm
23:27 16.3 °C 16.1 °C 993.1 hPa SSW 11.6 km/h 18.5 km/h 99 % 0 mm
23:33 16.2 °C 16 °C 992.8 hPa South 21.1 km/h 35.2 km/h 99 % 0 mm
23:43 15.8 °C 15.4 °C 992.8 hPa SSW 13.7 km/h 27.8 km/h 98 % 0 mm
23:49 15.6 °C 15.3 °C 992.4 hPa South 13.2 km/h 18.5 km/h 98 % 0 mm
23:55 15.5 °C 15.2 °C 992.4 hPa SW 16.1 km/h 25.9 km/h 98 % 0.25 mm
Crab Meadow Weather
Compliments of Weather Underground - 2.25 mb

Script developed by  Jim McMurry - jmcmurry@mwt.net Adapted for the template by  Wim van der Kuil - Leuven-Template.eu

Weather Terms: Outlook - A hazardous weather outlook is issued daily to indicate that a hazardous weather or hydrologic event may occur in the next several days. The outlook will include information about potential severe thunderstorms , heavy rain or flooding, winter weather, extremes of heat or cold, etc., that may develop over the next 7 days with an emphasis on the first 24 hours of the forecast. It is intended to provide information to those who need considerable lead time to prepare for the event.